This is the latest recevied weather packets stored in our database for station/object HB9Y1. If no packets are shown the sender has not sent any weather packets the latest 10 day(s).
| Time | Temp. | Humidity | Pressure | Rain* | Wind** | Luminosity | Snow |
|---|---|---|---|---|---|---|---|
| 1777697010 | 7.22° C | 64% | 1022.9 hPa | 0 mm | - | 19 W/m² | - |
| 1777695222 | 6.67° C | 64% | 1023.2 hPa | 0 mm | - | 2 W/m² | - |
| 1777694605 | 7.22° C | 63% | 1023 hPa | 0 mm | - | 0 W/m² | - |
| 1777691011 | 7.22° C | 61% | 1023.3 hPa | 0 mm | - | 0 W/m² | - |
| 1777689805 | 6.67° C | 61% | 1023.6 hPa | 0 mm | - | 0 W/m² | - |
| 1777687410 | 7.22° C | 61% | 1023.5 hPa | 0 mm | - | 0 W/m² | - |
| 1777686802 | 7.22° C | 61% | 1023.3 hPa | 0 mm | - | 0 W/m² | - |
| 1777685005 | 7.22° C | 58% | 1023.7 hPa | 0 mm | - | 0 W/m² | - |
| 1777683810 | 7.78° C | 62% | 1023.7 hPa | 0 mm | - | 0 W/m² | - |
| 1777681410 | 7.78° C | 60% | 1023.7 hPa | 0 mm | - | 0 W/m² | - |
| 1777680225 | 7.22° C | 57% | 1024.1 hPa | 0 mm | - | 0 W/m² | - |
| 1777678402 | 7.78° C | 59% | 1024.1 hPa | 0 mm | - | 0 W/m² | - |
| 1777675425 | 8.33° C | 58% | 1024.1 hPa | 0 mm | - | 0 W/m² | - |
| 1777668822 | 8.89° C | 64% | 1024.1 hPa | 0 mm | - | 0 W/m² | - |
| 1777665805 | 8.89° C | 63% | 1024.1 hPa | 0 mm | - | 0 W/m² | - |
| 1777664610 | 8.89° C | 63% | 1023.7 hPa | 0 mm | - | 0 W/m² | - |
| 1777658610 | 10.56° C | 58% | 1022.9 hPa | 0 mm | - | 18 W/m² | - |
| 1777653202 | 13.33° C | 49% | 1022.5 hPa | 0 mm | - | 480 W/m² | - |
| 1777648402 | 13.33° C | 46% | 1022.5 hPa | 0 mm | - | 620 W/m² | - |
| 1777644210 | 15° C | 42% | 1022.1 hPa | 0 mm | - | 686 W/m² | - |
| 1777638210 | 16.11° C | 45% | 1022.1 hPa | 0 mm | - | 792 W/m² | - |
| 1777630402 | 13.33° C | 59% | 1022.5 hPa | 0 mm | - | 676 W/m² | - |
| 1777626802 | 12.22° C | 59% | 1022.5 hPa | 0 mm | - | 566 W/m² | - |
| 1777620802 | 10.56° C | 64% | 1022.1 hPa | 0 mm | - | 309 W/m² | - |
| 1777619624 | 10.56° C | 71% | 1022.1 hPa | 0 mm | - | 262 W/m² | - |
* Rain latest hour (hover to see other rain measurements)
** Current wind speed in m/s (hover to see current wind gust speed)